createdAt,value
2022-12-25T00:00:08.472Z,1006.65
2022-12-25T00:00:29.706Z,1006.67
2022-12-25T00:00:50.842Z,1006.69
2022-12-25T00:01:11.943Z,1006.69
2022-12-25T00:01:32.989Z,1006.71
2022-12-25T00:01:54.045Z,1006.71
2022-12-25T00:02:15.184Z,1006.71
2022-12-25T00:02:36.327Z,1006.71
2022-12-25T00:02:57.527Z,1006.73
2022-12-25T00:03:18.814Z,1006.71
2022-12-25T00:03:40.123Z,1006.71
2022-12-25T00:04:01.406Z,1006.71
2022-12-25T00:04:22.502Z,1006.73
2022-12-25T00:04:43.542Z,1006.69
2022-12-25T00:05:04.606Z,1006.69
2022-12-25T00:05:25.721Z,1006.71
2022-12-25T00:05:46.767Z,1006.69
2022-12-25T00:06:07.828Z,1006.71
2022-12-25T00:06:28.919Z,1006.71
2022-12-25T00:06:49.967Z,1006.69
2022-12-25T00:07:11.031Z,1006.67
2022-12-25T00:07:32.099Z,1006.67
2022-12-25T00:07:53.154Z,1006.69
2022-12-25T00:08:14.264Z,1006.69
2022-12-25T00:08:35.278Z,1006.67
2022-12-25T00:08:56.331Z,1006.71
2022-12-25T00:09:17.389Z,1006.69
2022-12-25T00:09:38.443Z,1006.69
2022-12-25T00:09:59.502Z,1006.73
2022-12-25T00:10:20.576Z,1006.73
2022-12-25T00:10:45.310Z,1006.73
2022-12-25T00:11:06.746Z,1006.73
2022-12-25T00:11:27.808Z,1006.71
2022-12-25T00:11:48.856Z,1006.71
2022-12-25T00:12:09.915Z,1006.69
2022-12-25T00:12:30.986Z,1006.65
2022-12-25T00:12:52.071Z,1006.69
2022-12-25T00:13:13.119Z,1006.67
2022-12-25T00:13:34.191Z,1006.63
2022-12-25T00:13:55.223Z,1006.63
2022-12-25T00:14:16.289Z,1006.62
2022-12-25T00:14:37.341Z,1006.58
2022-12-25T00:14:58.427Z,1006.58
2022-12-25T00:15:19.457Z,1006.58
2022-12-25T00:15:40.547Z,1006.58
2022-12-25T00:16:01.628Z,1006.54
2022-12-25T00:16:22.864Z,1006.54
2022-12-25T00:16:43.989Z,1006.50
2022-12-25T00:17:05.081Z,1006.52
2022-12-25T00:17:26.123Z,1006.50
2022-12-25T00:17:47.179Z,1006.50
2022-12-25T00:18:08.252Z,1006.50
2022-12-25T00:18:29.296Z,1006.48
2022-12-25T00:18:50.351Z,1006.48
2022-12-25T00:19:11.410Z,1006.46
2022-12-25T00:19:32.525Z,1006.48
2022-12-25T00:19:53.561Z,1006.48
2022-12-25T00:20:14.627Z,1006.48
2022-12-25T00:20:35.681Z,1006.46
2022-12-25T00:20:56.739Z,1006.48
2022-12-25T00:21:17.800Z,1006.46
2022-12-25T00:21:38.901Z,1006.46
2022-12-25T00:21:59.961Z,1006.46
2022-12-25T00:22:20.992Z,1006.46
2022-12-25T00:22:42.051Z,1006.46
2022-12-25T00:23:03.111Z,1006.46
2022-12-25T00:23:24.176Z,1006.44
2022-12-25T00:23:45.267Z,1006.44
2022-12-25T00:24:06.316Z,1006.42
2022-12-25T00:24:27.362Z,1006.42
2022-12-25T00:24:48.446Z,1006.42
2022-12-25T00:25:09.503Z,1006.38
2022-12-25T00:25:30.540Z,1006.36
2022-12-25T00:25:51.609Z,1006.38
2022-12-25T00:26:12.667Z,1006.36
2022-12-25T00:26:33.721Z,1006.36
2022-12-25T00:26:54.806Z,1006.36
2022-12-25T00:27:15.872Z,1006.34
2022-12-25T00:27:36.935Z,1006.36
2022-12-25T00:27:57.998Z,1006.34
2022-12-25T00:28:19.094Z,1006.30
2022-12-25T00:28:40.159Z,1006.28
2022-12-25T00:29:01.217Z,1006.30
2022-12-25T00:29:22.272Z,1006.28
2022-12-25T00:29:43.325Z,1006.28
2022-12-25T00:30:04.382Z,1006.30
2022-12-25T00:30:25.470Z,1006.30
2022-12-25T00:30:46.508Z,1006.26
2022-12-25T00:31:07.696Z,1006.32
2022-12-25T00:31:29.006Z,1006.32
2022-12-25T00:31:50.173Z,1006.30
2022-12-25T00:32:11.416Z,1006.32
2022-12-25T00:32:32.524Z,1006.34
2022-12-25T00:32:53.540Z,1006.34
2022-12-25T00:33:14.613Z,1006.34
2022-12-25T00:33:35.658Z,1006.32
2022-12-25T00:33:56.718Z,1006.32
2022-12-25T00:34:17.778Z,1006.32
2022-12-25T00:34:38.895Z,1006.30
2022-12-25T00:34:59.944Z,1006.30
2022-12-25T00:35:20.984Z,1006.28
2022-12-25T00:35:42.047Z,1006.28
2022-12-25T00:36:03.113Z,1006.28
2022-12-25T00:36:24.156Z,1006.26
2022-12-25T00:36:45.249Z,1006.26
2022-12-25T00:37:06.282Z,1006.26
2022-12-25T00:37:27.497Z,1006.26
2022-12-25T00:37:48.563Z,1006.24
2022-12-25T00:38:09.623Z,1006.24
2022-12-25T00:38:30.677Z,1006.28
2022-12-25T00:38:51.747Z,1006.28
2022-12-25T00:39:12.802Z,1006.30
2022-12-25T00:39:33.858Z,1006.28
2022-12-25T00:39:54.930Z,1006.30
2022-12-25T00:40:15.989Z,1006.32
2022-12-25T00:40:37.055Z,1006.32
2022-12-25T00:40:58.118Z,1006.28
2022-12-25T00:41:19.196Z,1006.30
2022-12-25T00:41:40.247Z,1006.30
2022-12-25T00:42:01.323Z,1006.30
2022-12-25T00:42:22.355Z,1006.30
2022-12-25T00:42:43.562Z,1006.28
2022-12-25T00:43:04.617Z,1006.28
2022-12-25T00:43:25.680Z,1006.32
2022-12-25T00:43:46.804Z,1006.30
2022-12-25T00:44:07.856Z,1006.32
2022-12-25T00:44:28.896Z,1006.34
2022-12-25T00:44:49.972Z,1006.32
2022-12-25T00:45:11.032Z,1006.30
2022-12-25T00:45:32.155Z,1006.28
2022-12-25T00:45:53.283Z,1006.30
2022-12-25T00:46:14.520Z,1006.26
2022-12-25T00:46:35.725Z,1006.32
2022-12-25T00:46:56.794Z,1006.26
2022-12-25T00:47:17.928Z,1006.32
2022-12-25T00:47:38.992Z,1006.30
2022-12-25T00:48:00.128Z,1006.30
2022-12-25T00:48:21.176Z,1006.30
2022-12-25T00:48:42.206Z,1006.30
2022-12-25T00:49:03.270Z,1006.26
2022-12-25T00:49:24.316Z,1006.28
2022-12-25T00:49:45.389Z,1006.28
2022-12-25T00:50:06.441Z,1006.28
2022-12-25T00:50:27.508Z,1006.28
2022-12-25T00:50:48.549Z,1006.34
2022-12-25T00:51:09.651Z,1006.32
2022-12-25T00:51:30.689Z,1006.34
2022-12-25T00:51:51.764Z,1006.34
2022-12-25T00:52:12.819Z,1006.36
2022-12-25T00:52:33.889Z,1006.38
2022-12-25T00:52:55.077Z,1006.42
2022-12-25T00:53:16.136Z,1006.40
2022-12-25T00:53:37.238Z,1006.40
2022-12-25T00:53:58.281Z,1006.42
2022-12-25T00:54:19.338Z,1006.42
2022-12-25T00:54:40.410Z,1006.44
2022-12-25T00:55:01.484Z,1006.44
2022-12-25T00:55:22.548Z,1006.46
2022-12-25T00:55:43.601Z,1006.44
2022-12-25T00:56:04.663Z,1006.46
2022-12-25T00:56:25.741Z,1006.48
2022-12-25T00:56:46.784Z,1006.48
2022-12-25T00:57:07.837Z,1006.52
2022-12-25T00:57:28.902Z,1006.50
2022-12-25T00:57:49.963Z,1006.52
2022-12-25T00:58:11.202Z,1006.54
2022-12-25T00:58:32.297Z,1006.52
2022-12-25T00:58:53.343Z,1006.56
2022-12-25T00:59:14.392Z,1006.56
2022-12-25T00:59:35.460Z,1006.60
2022-12-25T00:59:56.508Z,1006.60
2022-12-25T01:00:17.596Z,1006.60
2022-12-25T01:00:38.701Z,1006.62
2022-12-25T01:00:59.763Z,1006.60
2022-12-25T01:01:20.968Z,1006.62
2022-12-25T01:01:42.417Z,1006.60
2022-12-25T01:02:03.676Z,1006.58
2022-12-25T01:02:25.196Z,1006.56
2022-12-25T01:02:46.606Z,1006.54
2022-12-25T01:03:07.783Z,1006.52
2022-12-25T01:03:29.165Z,1006.52
2022-12-25T01:03:50.198Z,1006.50
2022-12-25T01:04:11.268Z,1006.46
2022-12-25T01:04:32.342Z,1006.46
2022-12-25T01:04:53.396Z,1006.46
2022-12-25T01:05:14.435Z,1006.46
2022-12-25T01:05:35.556Z,1006.46
2022-12-25T01:05:56.567Z,1006.44
2022-12-25T01:06:17.629Z,1006.46
2022-12-25T01:06:38.687Z,1006.44
2022-12-25T01:06:59.753Z,1006.46
2022-12-25T01:07:20.802Z,1006.46
2022-12-25T01:07:41.897Z,1006.44
2022-12-25T01:08:02.912Z,1006.46
2022-12-25T01:08:23.974Z,1006.44
2022-12-25T01:08:45.199Z,1006.44
2022-12-25T01:09:06.255Z,1006.46
2022-12-25T01:09:27.312Z,1006.44
2022-12-25T01:09:48.401Z,1006.44
2022-12-25T01:10:09.522Z,1006.42
2022-12-25T01:10:30.541Z,1006.44
2022-12-25T01:10:51.606Z,1006.42
2022-12-25T01:11:12.655Z,1006.40
2022-12-25T01:11:33.717Z,1006.42
2022-12-25T01:11:54.775Z,1006.42
2022-12-25T01:12:15.870Z,1006.42
2022-12-25T01:12:36.913Z,1006.40
2022-12-25T01:12:57.971Z,1006.42
2022-12-25T01:13:19.047Z,1006.44
2022-12-25T01:13:40.148Z,1006.42
2022-12-25T01:14:01.248Z,1006.46
2022-12-25T01:14:22.284Z,1006.42
2022-12-25T01:14:43.366Z,1006.46
2022-12-25T01:15:04.464Z,1006.46
2022-12-25T01:15:25.509Z,1006.48
2022-12-25T01:15:46.574Z,1006.48
2022-12-25T01:16:07.710Z,1006.46
2022-12-25T01:16:28.831Z,1006.46
2022-12-25T01:16:50.005Z,1006.48
2022-12-25T01:17:11.082Z,1006.46
2022-12-25T01:17:32.137Z,1006.48
2022-12-25T01:17:53.216Z,1006.48
2022-12-25T01:18:14.277Z,1006.46
2022-12-25T01:18:35.342Z,1006.46
2022-12-25T01:18:56.463Z,1006.46
2022-12-25T01:19:17.533Z,1006.46
2022-12-25T01:19:38.583Z,1006.44
2022-12-25T01:20:00.173Z,1006.44
2022-12-25T01:20:21.208Z,1006.44
2022-12-25T01:20:42.262Z,1006.42
2022-12-25T01:21:03.379Z,1006.40
2022-12-25T01:21:24.406Z,1006.42
2022-12-25T01:21:45.481Z,1006.42
2022-12-25T01:22:06.562Z,1006.44
2022-12-25T01:22:27.623Z,1006.44
2022-12-25T01:22:48.679Z,1006.44
2022-12-25T01:23:09.744Z,1006.44
2022-12-25T01:23:30.789Z,1006.44
2022-12-25T01:23:51.859Z,1006.48
2022-12-25T01:24:12.918Z,1006.48
2022-12-25T01:24:33.992Z,1006.50
2022-12-25T01:24:55.053Z,1006.50
2022-12-25T01:25:16.123Z,1006.52
2022-12-25T01:25:37.181Z,1006.54
2022-12-25T01:25:58.256Z,1006.52
2022-12-25T01:26:19.316Z,1006.52
2022-12-25T01:26:40.369Z,1006.56
2022-12-25T01:27:01.436Z,1006.52
2022-12-25T01:27:22.502Z,1006.54
2022-12-25T01:27:43.575Z,1006.56
2022-12-25T01:28:04.618Z,1006.56
2022-12-25T01:28:25.708Z,1006.58
2022-12-25T01:28:46.737Z,1006.58
2022-12-25T01:29:07.815Z,1006.58
2022-12-25T01:29:28.888Z,1006.60
2022-12-25T01:29:50.104Z,1006.63
2022-12-25T01:30:11.161Z,1006.60
2022-12-25T01:30:32.231Z,1006.62
2022-12-25T01:30:53.281Z,1006.63
2022-12-25T01:31:14.426Z,1006.62
2022-12-25T01:31:35.526Z,1006.63
2022-12-25T01:31:56.596Z,1006.65
2022-12-25T01:32:17.647Z,1006.63
2022-12-25T01:32:38.711Z,1006.65
2022-12-25T01:32:59.782Z,1006.63
2022-12-25T01:33:20.840Z,1006.60
2022-12-25T01:33:41.907Z,1006.62
2022-12-25T01:34:02.970Z,1006.62
2022-12-25T01:34:24.030Z,1006.62
2022-12-25T01:34:49.262Z,1006.62
2022-12-25T01:35:12.228Z,1006.63
2022-12-25T01:35:33.285Z,1006.63
2022-12-25T01:35:54.350Z,1006.63
2022-12-25T01:36:15.400Z,1006.63
2022-12-25T01:36:36.468Z,1006.63
2022-12-25T01:36:57.516Z,1006.65
2022-12-25T01:37:18.589Z,1006.65
2022-12-25T01:37:39.645Z,1006.65
2022-12-25T01:38:00.696Z,1006.71
2022-12-25T01:38:21.766Z,1006.71
2022-12-25T01:38:42.825Z,1006.69
2022-12-25T01:39:03.883Z,1006.75
2022-12-25T01:39:24.945Z,1006.75
2022-12-25T01:39:46.047Z,1006.73
2022-12-25T01:40:07.217Z,1006.75
2022-12-25T01:40:28.275Z,1006.75
2022-12-25T01:40:49.343Z,1006.75
2022-12-25T01:41:10.405Z,1006.77
2022-12-25T01:41:31.460Z,1006.77
2022-12-25T01:41:52.521Z,1006.77
2022-12-25T01:42:13.618Z,1006.77
2022-12-25T01:42:34.654Z,1006.75
2022-12-25T01:42:55.728Z,1006.75
2022-12-25T01:43:18.729Z,1006.75
2022-12-25T01:43:39.853Z,1006.73
2022-12-25T01:44:00.922Z,1006.73
2022-12-25T01:44:22.004Z,1006.73
2022-12-25T01:44:43.048Z,1006.69
2022-12-25T01:45:04.100Z,1006.71
2022-12-25T01:45:25.369Z,1006.71
2022-12-25T01:45:46.454Z,1006.69
2022-12-25T01:46:07.627Z,1006.69
2022-12-25T01:46:28.732Z,1006.67
2022-12-25T01:46:49.770Z,1006.67
2022-12-25T01:47:10.815Z,1006.67
2022-12-25T01:47:31.887Z,1006.67
2022-12-25T01:47:52.937Z,1006.67
2022-12-25T01:48:13.999Z,1006.65
2022-12-25T01:48:35.088Z,1006.67
2022-12-25T01:48:56.131Z,1006.63
2022-12-25T01:49:17.223Z,1006.63
2022-12-25T01:49:38.251Z,1006.63
2022-12-25T01:49:59.311Z,1006.63
2022-12-25T01:50:20.363Z,1006.62
2022-12-25T01:50:41.448Z,1006.63
2022-12-25T01:51:02.515Z,1006.62
2022-12-25T01:51:23.592Z,1006.63
2022-12-25T01:51:44.655Z,1006.58
2022-12-25T01:52:05.696Z,1006.63
2022-12-25T01:52:26.751Z,1006.63
2022-12-25T01:52:47.810Z,1006.60
2022-12-25T01:53:08.870Z,1006.60
2022-12-25T01:53:30.044Z,1006.60
2022-12-25T01:53:51.076Z,1006.63
2022-12-25T01:54:12.119Z,1006.62
2022-12-25T01:54:33.202Z,1006.63
2022-12-25T01:54:54.252Z,1006.63
2022-12-25T01:55:15.329Z,1006.65
2022-12-25T01:55:36.400Z,1006.65
2022-12-25T01:55:57.483Z,1006.65
2022-12-25T01:56:18.569Z,1006.67
2022-12-25T01:56:39.623Z,1006.67
2022-12-25T01:57:00.673Z,1006.67
2022-12-25T01:57:21.711Z,1006.71
2022-12-25T01:57:42.773Z,1006.71
2022-12-25T01:58:03.836Z,1006.69
2022-12-25T01:58:24.905Z,1006.71
2022-12-25T01:58:45.971Z,1006.71
2022-12-25T01:59:07.049Z,1006.73
2022-12-25T01:59:28.122Z,1006.71
2022-12-25T01:59:49.153Z,1006.71
2022-12-25T02:00:10.219Z,1006.71
2022-12-25T02:00:31.275Z,1006.71
2022-12-25T02:00:52.392Z,1006.73
2022-12-25T02:01:13.795Z,1006.69
2022-12-25T02:01:35.004Z,1006.69
2022-12-25T02:01:56.173Z,1006.69
2022-12-25T02:02:17.410Z,1006.69
2022-12-25T02:02:38.665Z,1006.69
2022-12-25T02:02:59.865Z,1006.69
2022-12-25T02:03:20.956Z,1006.71
2022-12-25T02:03:42.024Z,1006.71
2022-12-25T02:04:03.082Z,1006.71
2022-12-25T02:04:24.151Z,1006.69
2022-12-25T02:04:45.217Z,1006.69
2022-12-25T02:05:06.273Z,1006.69
2022-12-25T02:05:27.344Z,1006.67
2022-12-25T02:05:48.468Z,1006.69
2022-12-25T02:06:09.524Z,1006.69
2022-12-25T02:06:30.578Z,1006.67
2022-12-25T02:06:51.642Z,1006.67
2022-12-25T02:07:12.701Z,1006.67
2022-12-25T02:07:33.764Z,1006.69
2022-12-25T02:07:54.842Z,1006.69
2022-12-25T02:08:15.886Z,1006.71
2022-12-25T02:08:36.944Z,1006.67
2022-12-25T02:08:58.001Z,1006.71
2022-12-25T02:09:19.065Z,1006.67
2022-12-25T02:09:40.126Z,1006.69
2022-12-25T02:10:01.176Z,1006.69
2022-12-25T02:10:22.236Z,1006.67
2022-12-25T02:10:43.348Z,1006.67
2022-12-25T02:11:04.402Z,1006.65
2022-12-25T02:11:25.475Z,1006.65
2022-12-25T02:11:46.548Z,1006.63
2022-12-25T02:12:07.608Z,1006.63
2022-12-25T02:12:28.663Z,1006.62
2022-12-25T02:12:49.749Z,1006.58
2022-12-25T02:13:10.829Z,1006.58
2022-12-25T02:13:31.869Z,1006.56
2022-12-25T02:13:52.933Z,1006.56
2022-12-25T02:14:13.994Z,1006.52
2022-12-25T02:14:35.097Z,1006.54
2022-12-25T02:15:01.106Z,1006.52
2022-12-25T02:15:23.108Z,1006.52
2022-12-25T02:15:44.161Z,1006.52
2022-12-25T02:16:05.266Z,1006.50
2022-12-25T02:16:26.347Z,1006.52
2022-12-25T02:16:57.941Z,1006.54
2022-12-25T02:17:14.485Z,1006.58
2022-12-25T02:17:35.551Z,1006.56
2022-12-25T02:17:56.620Z,1006.58
2022-12-25T02:18:17.695Z,1006.58
2022-12-25T02:18:38.736Z,1006.58
2022-12-25T02:18:59.789Z,1006.58
2022-12-25T02:19:20.850Z,1006.56
2022-12-25T02:19:41.913Z,1006.58
2022-12-25T02:20:03.004Z,1006.56
2022-12-25T02:20:24.033Z,1006.56
2022-12-25T02:20:45.094Z,1006.56
2022-12-25T02:21:06.159Z,1006.56
2022-12-25T02:21:27.220Z,1006.54
2022-12-25T02:21:48.308Z,1006.52
2022-12-25T02:22:09.362Z,1006.54
2022-12-25T02:22:30.434Z,1006.54
2022-12-25T02:22:51.585Z,1006.52
2022-12-25T02:23:12.624Z,1006.54
2022-12-25T02:23:33.695Z,1006.54
2022-12-25T02:23:54.756Z,1006.50
2022-12-25T02:24:15.821Z,1006.50
2022-12-25T02:24:36.877Z,1006.52
2022-12-25T02:24:58.051Z,1006.50
2022-12-25T02:25:19.059Z,1006.48
2022-12-25T02:25:40.134Z,1006.44
2022-12-25T02:26:01.203Z,1006.44
2022-12-25T02:26:22.297Z,1006.42
2022-12-25T02:26:43.323Z,1006.40
2022-12-25T02:27:04.654Z,1006.40
2022-12-25T02:27:25.679Z,1006.38
2022-12-25T02:27:46.742Z,1006.36
2022-12-25T02:28:07.794Z,1006.36
2022-12-25T02:28:28.860Z,1006.38
2022-12-25T02:28:49.929Z,1006.34
2022-12-25T02:29:10.994Z,1006.34
2022-12-25T02:29:32.129Z,1006.34
2022-12-25T02:29:53.176Z,1006.34
2022-12-25T02:30:14.214Z,1006.34
2022-12-25T02:30:35.268Z,1006.30
2022-12-25T02:30:56.319Z,1006.34
2022-12-25T02:31:17.473Z,1006.32
2022-12-25T02:31:38.636Z,1006.32
2022-12-25T02:31:59.779Z,1006.34
2022-12-25T02:32:20.872Z,1006.34
2022-12-25T02:32:41.898Z,1006.34
2022-12-25T02:33:02.953Z,1006.34
2022-12-25T02:33:24.012Z,1006.34
2022-12-25T02:33:45.147Z,1006.34
2022-12-25T02:34:06.169Z,1006.34
2022-12-25T02:34:27.231Z,1006.34
2022-12-25T02:34:48.289Z,1006.32
2022-12-25T02:35:09.364Z,1006.34
2022-12-25T02:35:30.401Z,1006.36
2022-12-25T02:35:51.507Z,1006.34
2022-12-25T02:36:12.531Z,1006.36
2022-12-25T02:36:33.579Z,1006.34
2022-12-25T02:36:54.663Z,1006.34
2022-12-25T02:37:15.704Z,1006.38
2022-12-25T02:37:36.912Z,1006.40
2022-12-25T02:37:57.988Z,1006.34
2022-12-25T02:38:19.041Z,1006.38
2022-12-25T02:38:40.136Z,1006.40
2022-12-25T02:39:01.190Z,1006.38
2022-12-25T02:39:22.311Z,1006.40
2022-12-25T02:39:43.343Z,1006.38
2022-12-25T02:40:04.429Z,1006.38
2022-12-25T02:40:25.482Z,1006.38
2022-12-25T02:40:46.529Z,1006.38
2022-12-25T02:41:07.601Z,1006.38
2022-12-25T02:41:28.646Z,1006.36
2022-12-25T02:41:49.705Z,1006.40
2022-12-25T02:42:10.807Z,1006.40
2022-12-25T02:42:31.844Z,1006.40
2022-12-25T02:42:53.064Z,1006.36
2022-12-25T02:43:14.112Z,1006.40
2022-12-25T02:43:35.172Z,1006.38
2022-12-25T02:43:56.231Z,1006.40
2022-12-25T02:44:17.320Z,1006.42
2022-12-25T02:44:38.361Z,1006.40
2022-12-25T02:44:59.439Z,1006.42
2022-12-25T02:45:20.477Z,1006.42
2022-12-25T02:45:41.574Z,1006.42
2022-12-25T02:46:02.825Z,1006.40
2022-12-25T02:46:23.958Z,1006.42
2022-12-25T02:46:45.009Z,1006.40
2022-12-25T02:47:06.051Z,1006.38
2022-12-25T02:47:27.107Z,1006.38
2022-12-25T02:47:48.198Z,1006.38
2022-12-25T02:48:09.403Z,1006.38
2022-12-25T02:48:30.461Z,1006.36
2022-12-25T02:48:51.530Z,1006.36
2022-12-25T02:49:12.591Z,1006.38
2022-12-25T02:49:33.645Z,1006.40
2022-12-25T02:49:54.697Z,1006.36
2022-12-25T02:50:15.773Z,1006.38
2022-12-25T02:50:36.816Z,1006.38
2022-12-25T02:50:57.879Z,1006.38
2022-12-25T02:51:18.951Z,1006.40
2022-12-25T02:51:40.002Z,1006.40
2022-12-25T02:52:01.064Z,1006.40
2022-12-25T02:52:22.122Z,1006.40
2022-12-25T02:52:43.187Z,1006.38
2022-12-25T02:53:04.244Z,1006.38
2022-12-25T02:53:25.461Z,1006.42
2022-12-25T02:53:46.506Z,1006.36
2022-12-25T02:54:07.563Z,1006.36
2022-12-25T02:54:28.619Z,1006.36
2022-12-25T02:54:49.682Z,1006.34
2022-12-25T02:55:10.764Z,1006.34
2022-12-25T02:55:31.814Z,1006.32
2022-12-25T02:55:52.865Z,1006.34
2022-12-25T02:56:13.965Z,1006.32
2022-12-25T02:56:34.980Z,1006.30
2022-12-25T02:56:56.062Z,1006.30
2022-12-25T02:57:17.108Z,1006.28
2022-12-25T02:57:38.171Z,1006.28
2022-12-25T02:57:59.236Z,1006.26
2022-12-25T02:58:20.306Z,1006.28
2022-12-25T02:58:41.387Z,1006.26
2022-12-25T02:59:02.440Z,1006.26
2022-12-25T02:59:23.495Z,1006.26
2022-12-25T02:59:44.553Z,1006.26
2022-12-25T03:00:05.626Z,1006.24
2022-12-25T03:00:26.676Z,1006.28
2022-12-25T03:00:47.774Z,1006.24
2022-12-25T03:01:08.864Z,1006.24
2022-12-25T03:01:30.060Z,1006.24
2022-12-25T03:01:51.242Z,1006.22
2022-12-25T03:02:12.549Z,1006.22
2022-12-25T03:02:33.709Z,1006.22
2022-12-25T03:02:54.909Z,1006.26
2022-12-25T03:03:15.995Z,1006.26
2022-12-25T03:03:37.138Z,1006.24
2022-12-25T03:03:58.316Z,1006.22
2022-12-25T03:04:19.379Z,1006.22
2022-12-25T03:04:40.450Z,1006.24
2022-12-25T03:05:01.550Z,1006.22
2022-12-25T03:05:22.569Z,1006.28
2022-12-25T03:05:43.646Z,1006.28
2022-12-25T03:06:04.734Z,1006.28
2022-12-25T03:06:25.793Z,1006.26
2022-12-25T03:06:46.894Z,1006.28
2022-12-25T03:07:07.916Z,1006.30
2022-12-25T03:07:29.008Z,1006.30
2022-12-25T03:07:50.097Z,1006.28
2022-12-25T03:08:11.158Z,1006.28
2022-12-25T03:08:32.220Z,1006.32
2022-12-25T03:08:53.325Z,1006.26
2022-12-25T03:09:14.359Z,1006.26
2022-12-25T03:09:35.421Z,1006.30
2022-12-25T03:09:56.505Z,1006.28
2022-12-25T03:10:17.575Z,1006.28
2022-12-25T03:10:38.612Z,1006.28
2022-12-25T03:10:59.682Z,1006.26
2022-12-25T03:11:20.742Z,1006.26
2022-12-25T03:11:41.786Z,1006.28
2022-12-25T03:12:02.872Z,1006.30
2022-12-25T03:12:23.935Z,1006.32
2022-12-25T03:12:44.970Z,1006.30
2022-12-25T03:13:06.028Z,1006.28
2022-12-25T03:13:27.094Z,1006.30
2022-12-25T03:13:48.173Z,1006.28
2022-12-25T03:14:09.393Z,1006.28
2022-12-25T03:14:30.455Z,1006.26
2022-12-25T03:14:51.550Z,1006.26
2022-12-25T03:15:12.671Z,1006.26
2022-12-25T03:15:33.708Z,1006.24
2022-12-25T03:15:54.775Z,1006.24
2022-12-25T03:16:15.867Z,1006.24
2022-12-25T03:16:37.029Z,1006.26
2022-12-25T03:16:58.135Z,1006.24
2022-12-25T03:17:19.192Z,1006.24
2022-12-25T03:17:40.279Z,1006.26
2022-12-25T03:18:01.355Z,1006.28
2022-12-25T03:18:22.417Z,1006.28
2022-12-25T03:18:43.475Z,1006.28
2022-12-25T03:19:04.523Z,1006.32
2022-12-25T03:19:25.758Z,1006.32
2022-12-25T03:19:46.809Z,1006.32
2022-12-25T03:20:07.868Z,1006.32
2022-12-25T03:20:28.944Z,1006.32
2022-12-25T03:20:49.991Z,1006.30
2022-12-25T03:21:11.323Z,1006.28
2022-12-25T03:21:32.359Z,1006.30
2022-12-25T03:21:53.411Z,1006.28
2022-12-25T03:22:14.539Z,1006.28
2022-12-25T03:22:35.582Z,1006.32
2022-12-25T03:22:56.624Z,1006.32
2022-12-25T03:23:17.664Z,1006.30
2022-12-25T03:23:38.792Z,1006.30
2022-12-25T03:23:59.835Z,1006.28
2022-12-25T03:24:20.928Z,1006.28
2022-12-25T03:24:41.979Z,1006.28
2022-12-25T03:25:03.034Z,1006.28
2022-12-25T03:25:24.091Z,1006.26
2022-12-25T03:25:45.163Z,1006.26
2022-12-25T03:26:06.244Z,1006.24
2022-12-25T03:26:27.284Z,1006.24
2022-12-25T03:26:48.347Z,1006.26
2022-12-25T03:27:09.392Z,1006.26
2022-12-25T03:27:30.446Z,1006.28
2022-12-25T03:27:51.522Z,1006.26
2022-12-25T03:28:12.561Z,1006.28
2022-12-25T03:28:33.668Z,1006.30
2022-12-25T03:28:54.696Z,1006.32
2022-12-25T03:29:15.761Z,1006.32
2022-12-25T03:29:36.816Z,1006.30
2022-12-25T03:29:57.946Z,1006.34
2022-12-25T03:30:19.042Z,1006.32
2022-12-25T03:30:40.147Z,1006.32
2022-12-25T03:31:01.267Z,1006.30
2022-12-25T03:31:22.394Z,1006.34
2022-12-25T03:31:43.413Z,1006.32
2022-12-25T03:32:04.564Z,1006.38
2022-12-25T03:32:25.615Z,1006.32
2022-12-25T03:32:46.682Z,1006.38
2022-12-25T03:33:36.714Z,1006.36
2022-12-25T03:33:44.878Z,1006.38
2022-12-25T03:34:01.747Z,1006.38
2022-12-25T03:34:22.813Z,1006.40
2022-12-25T03:34:43.861Z,1006.42
2022-12-25T03:35:06.388Z,1006.42
2022-12-25T03:35:27.523Z,1006.38
2022-12-25T03:35:48.560Z,1006.42
2022-12-25T03:36:09.601Z,1006.42
2022-12-25T03:36:30.662Z,1006.44
2022-12-25T03:36:51.716Z,1006.42
2022-12-25T03:37:12.767Z,1006.42
2022-12-25T03:37:33.885Z,1006.40
2022-12-25T03:37:54.921Z,1006.42
2022-12-25T03:38:15.985Z,1006.42
2022-12-25T03:38:37.034Z,1006.40
2022-12-25T03:38:58.095Z,1006.38
2022-12-25T03:39:19.144Z,1006.36
2022-12-25T03:39:40.249Z,1006.38
2022-12-25T03:40:01.285Z,1006.38
2022-12-25T03:40:22.508Z,1006.40
2022-12-25T03:40:43.559Z,1006.36
2022-12-25T03:41:04.612Z,1006.40
2022-12-25T03:41:25.683Z,1006.40
2022-12-25T03:41:46.730Z,1006.38
2022-12-25T03:42:07.796Z,1006.38
2022-12-25T03:42:28.848Z,1006.40
2022-12-25T03:42:49.903Z,1006.38
2022-12-25T03:43:10.959Z,1006.34
2022-12-25T03:43:32.021Z,1006.32
2022-12-25T03:43:53.088Z,1006.30
2022-12-25T03:44:14.154Z,1006.28
2022-12-25T03:44:35.216Z,1006.32
2022-12-25T03:44:56.258Z,1006.30
2022-12-25T03:45:17.317Z,1006.30
2022-12-25T03:45:38.448Z,1006.28
2022-12-25T03:45:59.508Z,1006.28
2022-12-25T03:46:20.637Z,1006.28
2022-12-25T03:46:41.813Z,1006.32
2022-12-25T03:47:02.856Z,1006.34
2022-12-25T03:47:23.906Z,1006.32
2022-12-25T03:47:44.964Z,1006.30
2022-12-25T03:48:06.037Z,1006.32
2022-12-25T03:48:27.085Z,1006.32
2022-12-25T03:48:48.160Z,1006.32
2022-12-25T03:49:09.220Z,1006.34
2022-12-25T03:49:30.267Z,1006.36
2022-12-25T03:49:51.329Z,1006.34
2022-12-25T03:50:12.390Z,1006.34
2022-12-25T03:50:33.448Z,1006.34
2022-12-25T03:50:54.542Z,1006.34
2022-12-25T03:51:15.662Z,1006.36
2022-12-25T03:51:36.708Z,1006.38
2022-12-25T03:51:57.765Z,1006.38
2022-12-25T03:52:18.836Z,1006.36
2022-12-25T03:52:39.887Z,1006.36
2022-12-25T03:53:00.941Z,1006.36
2022-12-25T03:53:22.026Z,1006.34
2022-12-25T03:53:43.071Z,1006.36
2022-12-25T03:54:04.124Z,1006.36
2022-12-25T03:54:25.187Z,1006.34
2022-12-25T03:54:46.229Z,1006.34
2022-12-25T03:55:07.336Z,1006.40
2022-12-25T03:55:28.365Z,1006.36
2022-12-25T03:55:49.428Z,1006.36
2022-12-25T03:56:10.533Z,1006.38
2022-12-25T03:56:31.593Z,1006.36
2022-12-25T03:56:52.648Z,1006.38
2022-12-25T03:57:13.712Z,1006.36
2022-12-25T03:57:34.762Z,1006.34
2022-12-25T03:57:55.860Z,1006.36
2022-12-25T03:58:16.913Z,1006.36
2022-12-25T03:58:37.974Z,1006.34
2022-12-25T03:58:59.031Z,1006.34
2022-12-25T03:59:23.780Z,1006.34
2022-12-25T03:59:45.282Z,1006.30
2022-12-25T04:00:06.359Z,1006.30
2022-12-25T04:00:27.443Z,1006.26
2022-12-25T04:00:48.491Z,1006.28
2022-12-25T04:01:09.601Z,1006.26
2022-12-25T04:01:30.832Z,1006.24
2022-12-25T04:01:52.098Z,1006.24
2022-12-25T04:02:13.382Z,1006.22
2022-12-25T04:02:34.680Z,1006.22
2022-12-25T04:02:55.988Z,1006.18
2022-12-25T04:03:17.180Z,1006.20
2022-12-25T04:03:38.314Z,1006.22
2022-12-25T04:03:59.399Z,1006.16
2022-12-25T04:04:20.466Z,1006.22
2022-12-25T04:04:41.523Z,1006.16
2022-12-25T04:05:02.574Z,1006.16
2022-12-25T04:05:23.623Z,1006.16
2022-12-25T04:05:44.688Z,1006.15
2022-12-25T04:06:05.734Z,1006.15
2022-12-25T04:06:26.801Z,1006.15
2022-12-25T04:06:47.879Z,1006.13
2022-12-25T04:07:08.957Z,1006.13
2022-12-25T04:07:30.023Z,1006.11
2022-12-25T04:07:51.061Z,1006.07
2022-12-25T04:08:12.117Z,1006.11
2022-12-25T04:08:33.180Z,1006.09
2022-12-25T04:08:54.233Z,1006.07
2022-12-25T04:09:15.292Z,1006.03
2022-12-25T04:09:36.367Z,1006.07
2022-12-25T04:09:57.442Z,1006.03
2022-12-25T04:10:18.498Z,1006.03
2022-12-25T04:10:39.551Z,1006.03
2022-12-25T04:11:00.608Z,1006.03
2022-12-25T04:11:21.662Z,1006.01
2022-12-25T04:11:42.740Z,1006.01
2022-12-25T04:12:03.934Z,1006.01
2022-12-25T04:12:24.991Z,1006.03
2022-12-25T04:12:46.048Z,1005.99
2022-12-25T04:13:07.113Z,1005.97
2022-12-25T04:13:28.160Z,1005.99
2022-12-25T04:13:49.214Z,1005.97
2022-12-25T04:14:10.285Z,1006.01
2022-12-25T04:14:31.332Z,1005.99
2022-12-25T04:14:52.393Z,1005.99
2022-12-25T04:15:13.447Z,1005.99
2022-12-25T04:15:34.548Z,1005.95